Time;durP1;ratioP1;P1;durP2;ratioP2;P2;SDS_P1;SDS_P2;PMS_P1;PMS_P2;Temp;Humidity;BMP_temperature;BMP_pressure;BME280_temperature;BME280_humidity;BME280_pressure;Samples;Min_cycle;Max_cycle;Signal;HPM_P1;HPM_P2
2021/05/05 00:01:55;;;;;;;1.92;1.33;;;7.90;99.90;;;;;;5054928;28;20561;-75
2021/05/05 00:04:21;;;;;;;2.38;0.98;;;8.00;99.90;;;;;;5054351;28;20180;-75
2021/05/05 00:06:49;;;;;;;3.00;1.73;;;7.90;99.90;;;;;;5053857;28;20182;-75
2021/05/05 00:09:17;;;;;;;6.27;1.83;;;7.90;99.90;;;;;;5036963;28;20468;-75
2021/05/05 00:11:44;;;;;;;2.28;1.38;;;7.80;99.90;;;;;;5053439;28;21004;-75
2021/05/05 00:14:13;;;;;;;3.63;1.47;;;7.80;99.90;;;;;;5053287;28;20715;-75
2021/05/05 00:16:39;;;;;;;4.25;1.70;;;7.80;99.90;;;;;;5034296;28;20421;-75
2021/05/05 00:19:08;;;;;;;2.05;1.50;;;7.70;99.90;;;;;;5039809;28;20207;-75
2021/05/05 00:21:37;;;;;;;4.03;1.60;;;7.70;99.90;;;;;;5053222;28;20638;-75
2021/05/05 00:24:03;;;;;;;2.38;1.40;;;7.80;99.90;;;;;;5053635;28;20185;-75
2021/05/05 00:26:30;;;;;;;3.40;1.75;;;7.60;99.90;;;;;;5053619;28;20224;-75
2021/05/05 00:29:09;;;;;;;1.48;1.38;;;7.70;99.90;;;;;;5052741;28;20637;-75
2021/05/05 00:31:36;;;;;;;1.63;1.30;;;7.60;99.90;;;;;;5054036;28;20803;-75
2021/05/05 00:34:06;;;;;;;2.63;1.10;;;7.70;99.90;;;;;;5036784;28;20549;-75
2021/05/05 00:36:32;;;;;;;2.17;1.60;;;7.70;99.90;;;;;;5053795;28;20608;-75
2021/05/05 00:38:59;;;;;;;2.05;1.70;;;7.60;99.90;;;;;;5036077;28;20235;-75
2021/05/05 00:41:27;;;;;;;4.15;1.77;;;7.50;99.90;;;;;;5052274;28;20185;-75
2021/05/05 00:43:53;;;;;;;2.57;1.53;;;7.60;99.90;;;;;;5054015;28;20190;-75
2021/05/05 00:46:19;;;;;;;4.38;1.70;;;7.60;99.90;;;;;;5053763;28;20992;-75
2021/05/05 00:48:45;;;;;;;3.05;1.67;;;7.60;99.90;;;;;;5053714;28;20572;-75
2021/05/05 00:51:11;;;;;;;2.30;1.57;;;7.50;99.90;;;;;;5052646;28;20207;-75
2021/05/05 00:53:40;;;;;;;2.78;1.73;;;7.50;99.90;;;;;;5036073;28;20777;-75
2021/05/05 00:56:07;;;;;;;5.30;2.00;;;7.50;99.90;;;;;;5052192;28;20184;-75
2021/05/05 00:58:34;;;;;;;5.45;2.38;;;7.50;99.90;;;;;;5052123;28;20265;-75
2021/05/05 01:01:02;;;;;;;2.05;1.63;;;7.40;99.90;;;;;;5053338;28;20189;-75
2021/05/05 01:03:29;;;;;;;5.32;1.95;;;7.40;99.90;;;;;;5052130;28;20235;-75
2021/05/05 01:06:00;;;;;;;2.97;1.65;;;7.40;99.90;;;;;;5052021;28;20243;-75
2021/05/05 01:08:31;;;;;;;5.10;2.30;;;7.40;99.90;;;;;;5052084;28;20311;-75
2021/05/05 01:11:00;;;;;;;2.83;2.05;;;7.30;99.90;;;;;;5051667;28;20292;-75
2021/05/05 01:13:27;;;;;;;1.67;1.48;;;7.20;99.90;;;;;;5052021;28;20192;-75
2021/05/05 01:15:54;;;;;;;4.20;1.92;;;7.20;99.90;;;;;;5053359;28;20165;-75
2021/05/05 01:18:22;;;;;;;2.28;1.70;;;7.20;99.90;;;;;;5052894;28;20173;-75
2021/05/05 01:20:49;;;;;;;4.85;2.10;;;7.10;99.90;;;;;;5051281;28;20219;-75
2021/05/05 01:23:15;;;;;;;3.80;2.10;;;7.10;99.90;;;;;;5052869;28;20187;-75
2021/05/05 01:25:41;;;;;;;5.72;2.17;;;7.10;99.90;;;;;;5051381;28;20214;-75
2021/05/05 01:28:10;;;;;;;3.25;1.88;;;7.20;99.90;;;;;;5031892;28;20185;-75
2021/05/05 01:30:38;;;;;;;3.20;2.53;;;7.20;99.90;;;;;;5034766;28;20722;-75
2021/05/05 01:33:09;;;;;;;3.22;1.88;;;7.20;99.90;;;;;;5052319;28;20268;-75
2021/05/05 01:35:36;;;;;;;2.92;1.83;;;7.30;99.90;;;;;;5051523;28;20173;-75
2021/05/05 01:38:02;;;;;;;3.25;2.35;;;7.30;99.90;;;;;;5052507;28;20182;-75
2021/05/05 01:40:32;;;;;;;3.17;1.50;;;7.20;99.90;;;;;;5051464;28;20216;-75
2021/05/05 01:43:05;;;;;;;3.70;1.70;;;7.30;99.90;;;;;;5034769;28;20186;-75
2021/05/05 01:45:36;;;;;;;2.70;1.60;;;7.30;99.90;;;;;;5051065;28;20185;-75
2021/05/05 01:48:05;;;;;;;4.05;2.00;;;7.30;99.90;;;;;;5051402;28;20195;-75
2021/05/05 01:50:32;;;;;;;4.05;2.35;;;7.40;99.90;;;;;;5049997;28;20217;-75
2021/05/05 01:53:03;;;;;;;2.92;2.30;;;7.40;99.90;;;;;;5051328;28;20188;-75
2021/05/05 01:55:30;;;;;;;2.10;1.90;;;7.40;99.90;;;;;;5052415;28;20191;-75
2021/05/05 01:57:58;;;;;;;3.53;1.88;;;7.30;99.90;;;;;;5034908;28;20513;-75
2021/05/05 02:00:36;;;;;;;4.43;2.17;;;7.20;99.90;;;;;;5050803;28;20225;-75
2021/05/05 02:03:05;;;;;;;3.58;2.33;;;7.10;99.90;;;;;;5050963;28;20180;-75
2021/05/05 02:05:42;;;;;;;3.08;2.35;;;7.10;99.90;;;;;;5050060;28;20222;-75
2021/05/05 02:08:20;;;;;;;2.90;2.60;;;7.10;99.90;;;;;;5051266;28;20178;-75
2021/05/05 02:10:49;;;;;;;3.40;2.38;;;7.00;99.90;;;;;;5032816;28;20274;-75
2021/05/05 02:13:16;;;;;;;3.70;3.08;;;7.00;99.90;;;;;;5050781;28;20173;-75
2021/05/05 02:15:43;;;;;;;5.88;2.85;;;7.00;99.90;;;;;;5052005;28;20169;-75
2021/05/05 02:18:12;;;;;;;3.15;2.85;;;6.90;99.90;;;;;;5051050;28;20226;-75
2021/05/05 02:20:43;;;;;;;3.70;2.50;;;6.80;99.90;;;;;;5051362;28;20278;-75
2021/05/05 02:23:13;;;;;;;4.93;3.10;;;6.80;99.90;;;;;;5018407;28;20541;-75
2021/05/05 02:25:39;;;;;;;5.53;2.72;;;6.80;99.90;;;;;;5050517;28;20303;-75
2021/05/05 02:28:11;;;;;;;8.35;2.67;;;6.70;99.90;;;;;;5050786;28;20191;-75
2021/05/05 02:30:49;;;;;;;8.25;2.97;;;6.70;99.90;;;;;;5035581;28;20253;-75
2021/05/05 02:33:21;;;;;;;2.75;2.42;;;6.70;99.90;;;;;;5035604;28;20616;-75
2021/05/05 02:35:48;;;;;;;3.70;2.90;;;6.70;99.90;;;;;;5051911;28;20261;-75
2021/05/05 02:38:15;;;;;;;6.50;2.70;;;6.70;99.90;;;;;;5034189;28;20610;-75
2021/05/05 02:40:46;;;;;;;6.65;3.00;;;6.60;99.90;;;;;;5050960;28;20200;-75
2021/05/05 02:43:16;;;;;;;3.50;2.45;;;6.70;99.90;;;;;;5053667;28;20206;-75
2021/05/05 02:45:44;;;;;;;3.88;3.20;;;6.60;99.90;;;;;;5054709;28;20694;-75
2021/05/05 02:48:13;;;;;;;7.22;2.78;;;6.70;99.90;;;;;;5054737;28;20176;-75
2021/05/05 02:50:40;;;;;;;4.65;3.10;;;6.70;99.90;;;;;;5037733;28;20599;-75
2021/05/05 02:53:06;;;;;;;3.03;2.60;;;6.70;99.90;;;;;;5054663;28;20187;-74
2021/05/05 02:55:32;;;;;;;4.22;2.80;;;6.70;99.90;;;;;;5054216;28;20227;-75
2021/05/05 02:57:59;;;;;;;3.00;2.58;;;6.80;99.90;;;;;;5055546;28;20184;-75
2021/05/05 03:00:26;;;;;;;3.78;3.28;;;6.80;99.90;;;;;;5054389;28;20339;-75
2021/05/05 03:02:54;;;;;;;5.40;3.08;;;6.80;99.90;;;;;;5054794;28;20655;-75
2021/05/05 03:05:20;;;;;;;4.37;3.43;;;6.80;99.90;;;;;;5037397;28;20192;-75
2021/05/05 03:07:48;;;;;;;3.80;3.40;;;6.80;99.90;;;;;;5055127;28;20522;-75
2021/05/05 03:10:19;;;;;;;3.50;3.05;;;6.80;99.90;;;;;;5054135;28;20239;-75
2021/05/05 03:12:45;;;;;;;5.43;3.67;;;6.90;99.90;;;;;;5054292;28;20181;-75
2021/05/05 03:15:11;;;;;;;6.67;4.20;;;6.90;99.90;;;;;;5053153;28;20827;-75
2021/05/05 03:17:38;;;;;;;5.55;3.92;;;6.80;99.90;;;;;;5037925;28;20439;-75
2021/05/05 03:20:09;;;;;;;5.32;3.30;;;6.70;99.90;;;;;;5053551;28;20200;-75
2021/05/05 03:22:38;;;;;;;6.57;4.05;;;6.70;99.90;;;;;;5053487;28;20689;-75
2021/05/05 03:25:08;;;;;;;6.22;4.07;;;6.60;99.90;;;;;;5054685;28;20617;-75
2021/05/05 03:27:34;;;;;;;5.70;4.00;;;6.60;99.90;;;;;;5033848;28;20216;-75
2021/05/05 03:30:01;;;;;;;5.50;3.80;;;6.60;99.90;;;;;;5035077;28;20223;-75
2021/05/05 03:32:29;;;;;;;5.15;3.85;;;6.50;99.90;;;;;;5046870;28;20283;-75
2021/05/05 03:34:55;;;;;;;6.65;4.30;;;6.40;99.90;;;;;;5053902;28;20204;-75
2021/05/05 03:37:21;;;;;;;5.32;4.28;;;6.50;99.90;;;;;;5055193;28;20647;-75
2021/05/05 03:39:48;;;;;;;8.45;4.47;;;6.40;99.90;;;;;;5053520;28;20549;-75
2021/05/05 03:42:16;;;;;;;7.30;5.03;;;6.40;99.90;;;;;;5053832;28;20188;-75
2021/05/05 03:44:43;;;;;;;6.05;4.13;;;6.40;99.90;;;;;;5053724;28;20188;-75
2021/05/05 03:47:11;;;;;;;7.60;4.63;;;6.40;99.90;;;;;;5054411;28;20184;-75
2021/05/05 03:49:37;;;;;;;7.15;4.85;;;6.40;99.90;;;;;;5036650;28;20210;-75
2021/05/05 03:52:03;;;;;;;5.50;4.23;;;6.50;99.90;;;;;;5053983;28;20200;-75
2021/05/05 03:54:29;;;;;;;5.22;4.35;;;6.60;99.90;;;;;;5036217;28;20417;-75
2021/05/05 03:56:58;;;;;;;5.72;4.28;;;6.70;99.90;;;;;;5054499;28;20690;-75
2021/05/05 03:59:24;;;;;;;8.85;4.50;;;6.70;99.90;;;;;;5053226;28;20707;-75
2021/05/05 04:01:50;;;;;;;6.15;4.57;;;6.80;99.90;;;;;;5054209;28;20557;-75
2021/05/05 04:04:19;;;;;;;4.53;4.07;;;6.80;99.90;;;;;;5053030;28;20177;-75
2021/05/05 04:06:45;;;;;;;6.82;4.63;;;6.80;99.90;;;;;;5053192;28;20211;-75
2021/05/05 04:09:11;;;;;;;6.80;4.53;;;6.90;99.90;;;;;;5053996;28;20199;-75
2021/05/05 04:11:37;;;;;;;6.32;5.15;;;6.90;99.90;;;;;;5054041;28;20474;-74
2021/05/05 04:14:04;;;;;;;7.70;4.77;;;6.90;99.90;;;;;;5053822;28;20653;-75
2021/05/05 04:16:30;;;;;;;7.18;5.20;;;6.90;99.90;;;;;;5053986;28;20419;-75
2021/05/05 04:18:56;;;;;;;7.23;5.10;;;6.90;99.90;;;;;;5052505;28;20542;-75
2021/05/05 04:21:23;;;;;;;5.60;5.10;;;6.90;99.90;;;;;;5053484;28;20929;-75
2021/05/05 04:23:49;;;;;;;7.13;5.20;;;6.90;99.90;;;;;;5052490;28;20176;-75
2021/05/05 04:26:20;;;;;;;10.00;5.47;;;6.90;99.90;;;;;;5037149;28;20315;-76
2021/05/05 04:28:48;;;;;;;7.35;4.82;;;6.90;99.90;;;;;;5053832;28;20691;-76
2021/05/05 04:31:14;;;;;;;8.40;4.90;;;7.00;99.90;;;;;;5052902;28;20196;-75
2021/05/05 04:33:45;;;;;;;6.50;5.47;;;7.00;99.90;;;;;;5053015;28;20207;-76
2021/05/05 04:36:12;;;;;;;10.23;5.97;;;7.00;99.90;;;;;;5052415;28;20238;-77
2021/05/05 04:38:39;;;;;;;12.60;6.15;;;6.90;99.90;;;;;;5054142;28;20224;-76
2021/05/05 04:41:05;;;;;;;8.40;5.80;;;6.90;99.90;;;;;;5051814;28;20254;-75
2021/05/05 04:43:34;;;;;;;8.23;5.50;;;7.00;99.90;;;;;;5051847;28;20192;-76
2021/05/05 04:46:00;;;;;;;8.90;5.82;;;7.00;99.90;;;;;;5052873;28;20223;-76
2021/05/05 04:48:27;;;;;;;8.60;6.70;;;7.00;99.90;;;;;;5051942;28;20187;-76
2021/05/05 04:50:53;;;;;;;7.68;5.78;;;6.90;99.90;;;;;;5034908;28;20691;-76
2021/05/05 04:53:19;;;;;;;7.20;5.47;;;7.00;99.90;;;;;;5053078;28;20177;-76
2021/05/05 04:55:45;;;;;;;6.67;5.33;;;7.00;99.90;;;;;;5051952;28;20180;-76
2021/05/05 04:58:11;;;;;;;7.40;5.75;;;6.90;99.90;;;;;;5053015;28;20432;-76
2021/05/05 05:00:37;;;;;;;8.87;6.40;;;7.00;99.90;;;;;;5051922;28;20239;-76
2021/05/05 05:03:03;;;;;;;8.63;6.60;;;7.00;99.90;;;;;;5052614;28;20423;-76
2021/05/05 05:05:29;;;;;;;12.52;6.60;;;7.00;99.90;;;;;;5051865;28;20423;-75
2021/05/05 05:07:55;;;;;;;7.80;5.88;;;6.90;99.90;;;;;;5051671;28;20219;-75
2021/05/05 05:10:22;;;;;;;5.75;4.00;;;6.80;99.90;;;;;;5035899;28;20208;-75
2021/05/05 05:12:48;;;;;;;5.43;3.70;;;6.50;99.90;;;;;;5052276;28;20168;-75
2021/05/05 05:15:17;;;;;;;6.03;4.20;;;6.30;99.90;;;;;;5052761;28;20650;-75
2021/05/05 05:17:45;;;;;;;7.22;4.65;;;6.10;99.90;;;;;;5052526;28;20171;-74
2021/05/05 05:20:11;;;;;;;7.93;5.27;;;6.00;99.90;;;;;;5046499;28;20200;-75
2021/05/05 05:22:38;;;;;;;8.95;4.65;;;5.80;99.90;;;;;;5042435;28;20429;-75
2021/05/05 05:25:12;;;;;;;7.68;5.05;;;5.80;99.90;;;;;;5035258;28;20184;-75
2021/05/05 05:27:41;;;;;;;6.07;4.40;;;5.80;99.90;;;;;;5051844;28;20238;-75
2021/05/05 05:30:08;;;;;;;5.53;4.80;;;5.80;99.90;;;;;;5053068;28;20270;-75
2021/05/05 05:32:35;;;;;;;7.30;5.13;;;5.70;99.90;;;;;;5052321;28;20678;-75
2021/05/05 05:35:04;;;;;;;7.63;5.15;;;5.70;99.90;;;;;;5052251;28;20207;-75
2021/05/05 05:37:30;;;;;;;6.03;5.43;;;5.80;99.90;;;;;;5051948;28;20230;-75
2021/05/05 05:39:59;;;;;;;9.50;7.60;;;5.80;99.90;;;;;;5052450;28;20234;-75
2021/05/05 05:42:25;;;;;;;9.75;7.60;;;5.80;99.90;;;;;;5052505;28;20220;-75
2021/05/05 05:44:54;;;;;;;9.05;7.57;;;5.80;99.90;;;;;;5051399;28;20176;-75
2021/05/05 05:47:23;;;;;;;10.90;8.93;;;5.90;99.90;;;;;;5051855;28;20177;-75
2021/05/05 05:49:53;;;;;;;9.02;8.07;;;5.90;99.90;;;;;;5052971;28;20694;-75
2021/05/05 05:52:21;;;;;;;13.52;8.93;;;6.00;99.90;;;;;;5053151;28;20217;-75
2021/05/05 05:54:47;;;;;;;15.38;10.10;;;6.10;99.90;;;;;;5052061;28;20588;-75
2021/05/05 05:57:13;;;;;;;13.02;10.55;;;6.10;99.90;;;;;;5052056;28;20591;-75
2021/05/05 05:59:42;;;;;;;13.30;10.27;;;6.20;99.90;;;;;;5051631;28;20201;-75
2021/05/05 06:02:10;;;;;;;15.13;9.98;;;6.30;99.90;;;;;;5035264;28;20502;-75
2021/05/05 06:04:36;;;;;;;12.65;9.95;;;6.40;99.90;;;;;;5052680;28;20182;-75
2021/05/05 06:07:06;;;;;;;14.38;10.65;;;6.40;99.90;;;;;;5052476;28;20272;-75
2021/05/05 06:09:33;;;;;;;18.35;10.73;;;6.40;99.90;;;;;;5051484;28;20278;-75
2021/05/05 06:12:06;;;;;;;14.20;9.02;;;6.40;99.90;;;;;;5053322;28;20163;-75
2021/05/05 06:14:34;;;;;;;12.13;8.63;;;6.40;99.90;;;;;;5035649;28;20194;-75
2021/05/05 06:17:57;;;;;;;13.80;9.98;;;6.40;99.90;;;;;;5053144;28;20689;-75
2021/05/05 06:20:30;;;;;;;9.75;7.97;;;6.40;99.90;;;;;;5055931;28;20559;-75
2021/05/05 06:22:58;;;;;;;9.18;7.90;;;6.40;99.90;;;;;;5039172;28;20659;-75
2021/05/05 06:25:24;;;;;;;12.30;7.30;;;6.30;99.90;;;;;;5055514;28;20563;-75
2021/05/05 06:27:55;;;;;;;14.57;8.80;;;6.20;99.90;;;;;;5055799;28;20247;-75
2021/05/05 06:30:24;;;;;;;12.30;8.70;;;6.20;99.90;;;;;;5055422;28;20212;-75
2021/05/05 06:33:16;;;;;;;12.15;8.18;;;6.20;99.90;;;;;;5056804;28;20172;-75
2021/05/05 06:35:44;;;;;;;17.52;9.65;;;6.20;99.90;;;;;;5055441;28;20200;-75
2021/05/05 06:38:10;;;;;;;13.30;8.30;;;6.20;99.90;;;;;;5039125;28;20180;-75
2021/05/05 06:40:36;;;;;;;13.57;8.75;;;6.10;99.90;;;;;;5038979;28;20212;-75
2021/05/05 06:43:03;;;;;;;13.40;10.25;;;6.20;99.90;;;;;;5055397;28;20191;-75
2021/05/05 06:45:29;;;;;;;11.45;8.30;;;6.20;99.90;;;;;;5056515;28;20176;-75
2021/05/05 06:47:58;;;;;;;6.90;5.65;;;6.20;99.90;;;;;;5055181;28;20569;-74
2021/05/05 06:50:28;;;;;;;7.30;5.85;;;6.20;99.90;;;;;;5056368;28;20211;-74
2021/05/05 06:52:57;;;;;;;7.20;4.80;;;6.00;99.90;;;;;;5039234;28;20195;-75
2021/05/05 06:55:23;;;;;;;4.57;4.00;;;6.10;99.90;;;;;;5038805;28;20164;-75
2021/05/05 06:57:50;;;;;;;6.32;4.70;;;5.90;99.90;;;;;;5038716;28;20168;-74
2021/05/05 07:00:18;;;;;;;6.75;6.03;;;5.80;99.90;;;;;;5055010;28;20238;-75
2021/05/05 07:02:47;;;;;;;6.75;5.80;;;5.70;99.90;;;;;;5055665;28;20172;-75
2021/05/05 07:05:13;;;;;;;6.60;5.90;;;5.60;99.90;;;;;;5055318;28;20192;-75
2021/05/05 07:07:41;;;;;;;10.25;6.70;;;5.50;99.90;;;;;;5054972;28;20178;-75
2021/05/05 07:10:11;;;;;;;6.57;4.95;;;5.50;99.90;;;;;;5055910;28;20295;-75
2021/05/05 07:12:37;;;;;;;7.25;5.20;;;5.50;99.90;;;;;;5038659;28;20619;-75
2021/05/05 07:15:05;;;;;;;6.20;5.35;;;5.40;99.90;;;;;;5056009;28;20169;-74
2021/05/05 07:17:34;;;;;;;7.07;5.55;;;5.30;99.90;;;;;;5055837;28;20226;-76
2021/05/05 07:20:00;;;;;;;7.15;6.45;;;5.50;99.90;;;;;;5055590;28;20199;-75
2021/05/05 07:22:27;;;;;;;8.75;7.15;;;5.60;99.90;;;;;;5053458;28;20658;-75
2021/05/05 07:24:53;;;;;;;8.60;7.70;;;5.60;99.90;;;;;;5053683;28;20264;-75
2021/05/05 07:27:20;;;;;;;11.00;8.03;;;5.80;99.90;;;;;;5054821;28;20264;-75
2021/05/05 07:29:48;;;;;;;9.98;8.05;;;5.80;99.90;;;;;;5052344;28;20471;-75
2021/05/05 07:32:14;;;;;;;10.60;8.15;;;5.80;99.90;;;;;;5053513;28;20181;-75
2021/05/05 07:34:42;;;;;;;10.90;9.68;;;5.90;99.90;;;;;;5055218;28;20623;-75
2021/05/05 07:37:22;;;;;;;12.30;10.93;;;6.00;99.90;;;;;;5054449;28;20192;-75
2021/05/05 07:46:32;;;;;;;5.82;4.20;;;6.10;99.90;;;;;;5034059;28;20276;-74
2021/05/05 07:48:41;;;;;;;4.50;3.58;;;6.10;99.90;;;;;;5022413;28;20208;-74
2021/05/05 07:51:07;;;;;;;4.25;2.85;;;6.00;99.90;;;;;;5034808;28;20239;-74
2021/05/05 07:53:38;;;;;;;6.15;2.80;;;5.90;99.90;;;;;;5033699;28;20169;-74
2021/05/05 07:56:12;;;;;;;3.55;2.80;;;5.80;99.90;;;;;;5017707;28;20215;-74
2021/05/05 07:58:41;;;;;;;4.18;3.22;;;5.90;99.90;;;;;;5034135;28;20212;-75
2021/05/05 08:01:11;;;;;;;6.82;5.03;;;5.80;99.90;;;;;;5016994;28;20173;-74
2021/05/05 08:03:38;;;;;;;5.00;4.50;;;5.70;99.90;;;;;;5039634;28;20185;-75
2021/05/05 08:06:07;;;;;;;5.63;5.13;;;5.60;99.90;;;;;;5053566;28;20518;-75
2021/05/05 08:08:33;;;;;;;4.10;3.50;;;5.60;99.90;;;;;;5020406;28;20635;-75
2021/05/05 08:11:00;;;;;;;3.60;2.45;;;5.50;99.90;;;;;;5036844;28;20567;-75
2021/05/05 08:13:29;;;;;;;2.67;2.17;;;5.50;99.90;;;;;;5053076;28;20173;-75
2021/05/05 08:15:56;;;;;;;3.70;2.45;;;5.50;99.90;;;;;;5052406;28;20187;-75
2021/05/05 08:18:22;;;;;;;3.63;2.90;;;5.50;99.90;;;;;;5036590;28;20183;-75
2021/05/05 08:20:52;;;;;;;5.95;3.50;;;5.50;99.90;;;;;;5054175;28;20176;-75
2021/05/05 08:23:19;;;;;;;7.55;3.70;;;5.60;99.90;;;;;;5036109;28;20180;-75
2021/05/05 08:25:48;;;;;;;4.28;3.88;;;5.70;99.90;;;;;;5052780;28;20258;-75
2021/05/05 08:28:14;;;;;;;4.55;4.05;;;5.70;99.90;;;;;;5052721;28;20178;-75
2021/05/05 08:30:40;;;;;;;5.35;4.30;;;5.80;99.90;;;;;;5034300;28;20216;-75
2021/05/05 08:33:10;;;;;;;5.53;4.95;;;5.80;99.90;;;;;;5049739;28;20199;-75
2021/05/05 08:35:36;;;;;;;6.63;4.30;;;6.00;99.90;;;;;;5052141;28;20179;-75
2021/05/05 08:38:07;;;;;;;5.07;4.40;;;6.20;99.90;;;;;;5052257;28;20182;-75
2021/05/05 08:40:33;;;;;;;6.25;4.22;;;6.30;99.90;;;;;;5048375;28;20219;-75
2021/05/05 08:43:00;;;;;;;6.43;4.93;;;6.50;99.90;;;;;;5031139;28;20181;-75
2021/05/05 08:45:27;;;;;;;6.28;4.72;;;6.70;99.90;;;;;;5031095;28;20178;-75
2021/05/05 08:48:06;;;;;;;8.13;5.18;;;7.00;99.90;;;;;;5031100;28;20180;-75
2021/05/05 08:50:39;;;;;;;5.80;4.35;;;7.20;99.90;;;;;;5013625;28;20230;-75
2021/05/05 08:53:09;;;;;;;8.77;4.07;;;7.20;99.90;;;;;;5031789;28;20201;-75
2021/05/05 08:55:42;;;;;;;6.07;4.13;;;7.30;99.90;;;;;;5032200;28;20249;-75
2021/05/05 08:58:08;;;;;;;6.63;4.20;;;7.40;99.90;;;;;;5033065;28;20443;-75
2021/05/05 09:00:36;;;;;;;7.93;4.05;;;7.40;99.90;;;;;;5032660;28;20453;-75
2021/05/05 09:03:07;;;;;;;7.28;4.40;;;7.60;99.90;;;;;;5016385;28;20180;-75
2021/05/05 09:06:07;;;;;;;8.02;4.35;;;7.80;99.90;;;;;;5053387;28;20189;-74
2021/05/05 09:08:35;;;;;;;4.73;4.30;;;7.90;99.90;;;;;;5048285;28;20280;-74
2021/05/05 09:11:03;;;;;;;10.75;4.80;;;8.10;99.90;;;;;;5053403;28;20459;-74
2021/05/05 09:13:53;;;;;;;6.47;4.07;;;8.40;99.90;;;;;;5042712;28;20226;-75
2021/05/05 09:16:31;;;;;;;8.30;4.20;;;8.50;99.90;;;;;;5041947;28;20511;-75
2021/05/05 09:19:08;;;;;;;8.20;4.03;;;8.70;99.90;;;;;;5038309;28;20445;-75
2021/05/05 09:21:52;;;;;;;9.60;5.20;;;8.90;99.90;;;;;;5033586;28;20461;-74
2021/05/05 09:24:28;;;;;;;8.63;4.13;;;9.20;99.90;;;;;;5046602;28;20518;-74
2021/05/05 09:27:03;;;;;;;5.70;3.70;;;9.30;99.90;;;;;;5028629;28;20488;-78
2021/05/05 09:29:44;;;;;;;6.03;3.60;;;9.20;99.90;;;;;;5043386;28;20907;-73
2021/05/05 09:32:13;;;;;;;4.43;3.70;;;9.00;99.90;;;;;;5012455;28;20956;-75
2021/05/05 09:34:40;;;;;;;6.10;4.10;;;9.00;99.90;;;;;;5030016;28;21050;-75
2021/05/05 09:37:09;;;;;;;5.70;4.07;;;8.80;99.90;;;;;;5047325;28;20687;-74
2021/05/05 09:39:40;;;;;;;4.93;4.40;;;8.60;99.90;;;;;;5021103;28;20509;-75
2021/05/05 09:42:18;;;;;;;5.40;4.20;;;8.50;99.90;;;;;;5045870;28;21014;-75
2021/05/05 09:44:58;;;;;;;6.97;4.43;;;8.60;99.90;;;;;;5047960;28;20466;-74
2021/05/05 09:47:45;;;;;;;6.80;5.10;;;8.50;99.90;;;;;;5047282;28;20433;-74
2021/05/05 09:50:33;;;;;;;6.17;5.03;;;8.50;99.90;;;;;;5042900;28;20955;-76
2021/05/05 09:53:38;;;;;;;9.27;5.20;;;8.60;99.90;;;;;;5047081;28;20435;-75
2021/05/05 09:56:09;;;;;;;9.45;6.18;;;8.60;99.90;;;;;;5006666;28;20433;-75
2021/05/05 09:58:37;;;;;;;7.60;5.33;;;8.60;99.90;;;;;;5012844;28;20241;-73
2021/05/05 10:01:06;;;;;;;11.43;6.10;;;8.50;99.90;;;;;;4999279;28;20450;-75
2021/05/05 10:03:59;;;;;;;8.90;5.10;;;8.40;99.90;;;;;;4987718;28;20451;-74
2021/05/05 10:06:37;;;;;;;6.53;3.30;;;8.10;99.90;;;;;;4974734;28;20446;-74
2021/05/05 10:09:11;;;;;;;6.03;2.50;;;7.90;99.90;;;;;;4994246;28;20795;-76
2021/05/05 10:11:40;;;;;;;6.28;1.90;;;7.50;99.90;;;;;;5007107;28;20308;-75
2021/05/05 10:14:11;;;;;;;3.10;1.75;;;7.20;99.90;;;;;;5001724;28;20693;-75
2021/05/05 10:16:42;;;;;;;3.15;1.85;;;6.70;99.90;;;;;;4987236;28;20715;-73
2021/05/05 10:19:16;;;;;;;1.65;1.15;;;6.40;99.90;;;;;;5006000;28;20222;-75
2021/05/05 10:21:55;;;;;;;2.90;1.52;;;6.30;99.90;;;;;;5000233;28;20240;-74
2021/05/05 10:24:25;;;;;;;2.00;1.33;;;6.30;99.90;;;;;;4998360;28;20564;-73
2021/05/05 10:26:52;;;;;;;4.68;1.35;;;6.20;99.90;;;;;;5021136;28;20216;-73
2021/05/05 10:29:19;;;;;;;2.83;1.50;;;6.20;99.90;;;;;;5045354;28;20208;-75
2021/05/05 10:31:51;;;;;;;2.90;1.30;;;6.40;99.90;;;;;;5047295;28;20219;-74
2021/05/05 10:34:22;;;;;;;4.05;2.17;;;6.60;99.90;;;;;;5025367;28;20185;-75
2021/05/05 10:36:55;;;;;;;4.25;2.20;;;6.80;99.90;;;;;;5047939;28;20188;-73
2021/05/05 10:39:22;;;;;;;2.60;2.10;;;7.10;99.90;;;;;;5046931;28;20751;-72
2021/05/05 10:42:00;;;;;;;5.07;2.90;;;7.20;99.90;;;;;;5047142;28;20185;-74
2021/05/05 10:44:40;;;;;;;4.60;3.20;;;7.40;99.90;;;;;;5013478;28;20207;-75
2021/05/05 10:47:18;;;;;;;6.70;4.05;;;7.70;99.90;;;;;;5048598;28;20436;-74
2021/05/05 10:52:54;;;;;;;5.63;4.53;;;8.20;99.90;;;;;;5047846;28;20455;-76
2021/05/05 10:55:48;;;;;;;7.53;4.83;;;8.50;99.90;;;;;;5026750;28;20439;-76
2021/05/05 10:58:24;;;;;;;6.40;4.33;;;8.60;99.90;;;;;;5009124;28;20443;-75
2021/05/05 11:01:13;;;;;;;5.97;3.37;;;8.50;99.90;;;;;;5049891;28;20824;-74
2021/05/05 11:03:42;;;;;;;7.07;4.47;;;8.60;99.90;;;;;;5012958;28;20461;-74
2021/05/05 11:06:34;;;;;;;6.23;3.90;;;8.80;99.90;;;;;;5051522;28;20443;-75
2021/05/05 11:09:06;;;;;;;7.83;3.80;;;9.20;99.90;;;;;;5036167;28;20529;-76
2021/05/05 11:11:38;;;;;;;6.40;3.10;;;9.70;99.90;;;;;;5036282;28;20569;-75
2021/05/05 11:14:05;;;;;;;5.47;3.20;;;9.90;99.90;;;;;;5051609;28;20436;-74
2021/05/05 11:16:52;;;;;;;5.23;2.90;;;9.80;99.90;;;;;;5052004;28;20457;-75
2021/05/05 11:19:37;;;;;;;7.73;3.87;;;9.70;99.90;;;;;;5050343;28;20472;-74
2021/05/05 11:22:08;;;;;;;5.63;3.40;;;9.60;99.90;;;;;;5043291;28;20434;-76
2021/05/05 11:24:42;;;;;;;8.77;3.70;;;9.50;99.90;;;;;;5050934;28;20534;-74
2021/05/05 11:27:11;;;;;;;12.20;6.30;;;9.40;99.90;;;;;;5051096;28;20514;-76
2021/05/05 11:29:47;;;;;;;6.03;4.10;;;9.20;99.90;;;;;;5045546;28;20539;-73
2021/05/05 11:32:14;;;;;;;7.20;3.77;;;9.00;99.90;;;;;;5045774;28;20432;-76
2021/05/05 11:34:47;;;;;;;7.60;2.37;;;8.70;99.90;;;;;;5051623;28;20437;-74
2021/05/05 11:37:28;;;;;;;4.40;2.03;;;8.30;99.90;;;;;;5044396;28;20901;-75
2021/05/05 11:40:04;;;;;;;3.90;2.05;;;7.90;99.90;;;;;;5049113;28;20462;-75
2021/05/05 11:42:36;;;;;;;4.47;2.20;;;7.60;99.90;;;;;;5037698;28;20201;-76
2021/05/05 11:45:13;;;;;;;7.80;1.83;;;7.60;99.90;;;;;;5041141;28;21003;-75
2021/05/05 11:47:46;;;;;;;3.25;1.35;;;7.70;99.90;;;;;;5031171;28;20186;-74
2021/05/05 11:50:25;;;;;;;3.47;1.35;;;7.80;99.90;;;;;;5041443;28;20211;-74
2021/05/05 11:53:03;;;;;;;1.97;0.97;;;8.00;99.90;;;;;;5037318;28;20189;-76
2021/05/05 11:55:30;;;;;;;3.73;1.83;;;8.30;99.90;;;;;;5042129;28;20417;-75
2021/05/05 11:58:00;;;;;;;2.60;1.60;;;8.80;99.90;;;;;;5030052;28;20546;-75
2021/05/05 12:00:33;;;;;;;4.67;2.10;;;9.40;99.90;;;;;;5020549;28;20453;-75
2021/05/05 12:03:01;;;;;;;3.53;2.00;;;9.60;99.90;;;;;;5049047;28;20437;-75
2021/05/05 12:05:28;;;;;;;3.27;1.77;;;9.80;99.90;;;;;;5015675;28;20498;-75
2021/05/05 12:08:01;;;;;;;3.90;2.20;;;9.90;99.90;;;;;;5036789;28;20512;-74
2021/05/05 12:10:37;;;;;;;3.40;2.97;;;10.20;99.90;;;;;;5053529;28;20627;-75
2021/05/05 12:13:13;;;;;;;4.60;2.90;;;10.80;99.90;;;;;;5038386;28;20535;-75
2021/05/05 12:15:44;;;;;;;5.17;3.10;;;11.10;99.90;;;;;;5038416;28;21043;-76
2021/05/05 12:18:20;;;;;;;8.03;2.40;;;11.10;99.90;;;;;;5042738;28;20437;-74
2021/05/05 12:20:49;;;;;;;2.40;1.77;;;10.70;99.90;;;;;;5028143;28;21095;-76
2021/05/05 12:23:16;;;;;;;3.37;1.80;;;10.20;99.90;;;;;;5042871;28;20839;-75
2021/05/05 12:25:43;;;;;;;2.70;2.10;;;9.90;99.90;;;;;;5018640;28;20917;-76
2021/05/05 12:28:15;;;;;;;2.40;2.10;;;9.70;99.90;;;;;;5052295;28;20498;-77
2021/05/05 12:30:46;;;;;;;2.70;2.33;;;9.60;99.90;;;;;;5032394;28;20885;-76
2021/05/05 12:33:21;;;;;;;2.80;1.87;;;9.60;99.90;;;;;;5030712;28;20441;-76
2021/05/05 12:35:49;;;;;;;3.47;2.27;;;9.90;99.90;;;;;;5026317;28;20762;-77
2021/05/05 12:38:18;;;;;;;5.13;3.00;;;10.10;99.90;;;;;;5035601;28;20415;-76
2021/05/05 12:40:45;;;;;;;4.80;2.27;;;10.00;99.90;;;;;;5052843;28;20433;-76
2021/05/05 12:43:36;;;;;;;6.07;2.50;;;10.00;99.90;;;;;;5033938;28;20566;-77
2021/05/05 12:46:03;;;;;;;6.50;2.90;;;10.10;99.90;;;;;;5021366;28;20422;-77
2021/05/05 12:48:31;;;;;;;2.10;2.00;;;10.20;99.90;;;;;;5033934;28;20440;-77
2021/05/05 12:51:20;;;;;;;2.93;2.73;;;10.40;99.90;;;;;;5047790;28;20454;-76
2021/05/05 12:54:03;;;;;;;4.13;2.17;;;10.50;99.90;;;;;;5051718;28;20438;-77
2021/05/05 12:57:01;;;;;;;5.80;2.80;;;10.80;99.90;;;;;;5035633;28;20430;-77
2021/05/05 12:59:34;;;;;;;3.67;3.30;;;11.00;99.90;;;;;;5030565;28;20459;-75
2021/05/05 13:02:04;;;;;;;6.30;2.80;;;11.20;99.90;;;;;;5047850;28;20442;-77
2021/05/05 13:04:42;;;;;;;3.40;3.07;;;11.50;99.90;;;;;;5012048;28;20431;-77
2021/05/05 13:07:36;;;;;;;2.70;2.47;;;11.40;99.90;;;;;;5051500;28;20434;-76
2021/05/05 13:10:10;;;;;;;4.83;2.07;;;10.90;99.90;;;;;;5045620;28;20467;-77
2021/05/05 13:15:31;;;;;;;5.50;2.37;;;9.70;99.90;;;;;;5034998;28;20452;-76
2021/05/05 13:32:44;;;;;;;8.63;2.10;;;8.50;99.90;;;;;;5042513;28;20191;-77
2021/05/05 13:35:53;;;;;;;4.67;2.17;;;8.80;99.90;;;;;;5046265;28;20924;-76
2021/05/05 13:38:26;;;;;;;6.13;2.20;;;9.50;99.90;;;;;;5044122;28;20441;-76
2021/05/05 13:41:03;;;;;;;5.43;1.80;;;10.30;99.90;;;;;;5050909;28;20437;-75